createdAt,value
2023-01-17T00:01:22.991Z,2.83
2023-01-17T00:03:50.031Z,2.52
2023-01-17T00:06:16.899Z,2.25
2023-01-17T00:08:44.031Z,2.42
2023-01-17T00:11:11.296Z,2.43
2023-01-17T00:13:38.336Z,2.51
2023-01-17T00:16:05.471Z,2.25
2023-01-17T00:18:32.393Z,2.18
2023-01-17T00:20:59.294Z,2.24
2023-01-17T00:23:26.607Z,2.43
2023-01-17T00:25:53.857Z,2.58
2023-01-17T00:28:20.743Z,2.68
2023-01-17T00:30:47.716Z,2.46
2023-01-17T00:33:14.693Z,2.65
2023-01-17T00:35:41.772Z,2.68
2023-01-17T00:38:14.159Z,2.75
2023-01-17T00:40:43.541Z,2.45
2023-01-17T00:43:14.813Z,1.99
2023-01-17T00:45:44.014Z,2.19
2023-01-17T00:48:10.903Z,2.28
2023-01-17T00:50:38.062Z,2.30
2023-01-17T00:53:05.862Z,1.72
2023-01-17T00:55:33.762Z,1.79
2023-01-17T00:58:09.584Z,2.03
2023-01-17T01:00:36.570Z,2.24
2023-01-17T01:03:09.390Z,2.24
2023-01-17T01:05:38.064Z,2.27
2023-01-17T01:08:26.001Z,2.40
2023-01-17T01:10:52.983Z,2.37
2023-01-17T01:13:24.098Z,2.15
2023-01-17T01:15:50.985Z,2.04
2023-01-17T01:18:18.065Z,2.25
2023-01-17T01:20:44.890Z,2.40
2023-01-17T01:23:11.880Z,2.38
2023-01-17T01:25:38.711Z,2.00
2023-01-17T01:28:09.991Z,1.85
2023-01-17T01:30:36.912Z,1.85
2023-01-17T01:33:12.049Z,2.05
2023-01-17T01:35:38.876Z,2.02
2023-01-17T01:38:05.920Z,1.73
2023-01-17T01:40:32.868Z,1.86
2023-01-17T01:43:01.854Z,1.81
2023-01-17T01:45:31.027Z,1.93
2023-01-17T01:48:27.181Z,2.04
2023-01-17T01:50:54.228Z,1.97
2023-01-17T01:53:21.947Z,1.79
2023-01-17T01:55:51.122Z,1.28
2023-01-17T01:58:28.905Z,1.41
2023-01-17T02:00:55.991Z,1.51
2023-01-17T02:03:32.043Z,1.56
2023-01-17T02:06:07.262Z,1.80
2023-01-17T02:08:34.830Z,1.95
2023-01-17T02:11:03.311Z,1.62
2023-01-17T02:13:30.775Z,1.38
2023-01-17T02:15:57.738Z,1.54
2023-01-17T02:18:53.812Z,1.82
2023-01-17T02:21:34.411Z,1.54
2023-01-17T02:24:25.995Z,1.55
2023-01-17T02:27:48.396Z,1.38
2023-01-17T02:30:38.162Z,1.32
2023-01-17T02:33:25.263Z,1.40
2023-01-17T02:35:59.989Z,1.62
2023-01-17T02:38:56.135Z,1.73
2023-01-17T02:41:29.852Z,1.83
2023-01-17T02:43:57.194Z,1.92
2023-01-17T02:46:24.503Z,1.90
2023-01-17T02:48:52.397Z,1.92
2023-01-17T02:51:22.051Z,1.89
2023-01-17T02:54:13.848Z,1.87
2023-01-17T02:56:48.043Z,1.88
2023-01-17T02:59:36.117Z,1.83
2023-01-17T03:02:35.052Z,1.57
2023-01-17T03:05:05.052Z,1.61
2023-01-17T03:07:33.297Z,1.78
2023-01-17T03:10:02.923Z,1.80
2023-01-17T03:12:32.226Z,1.99
2023-01-17T03:14:59.292Z,1.97
2023-01-17T03:17:31.627Z,1.83
2023-01-17T03:19:59.203Z,1.72
2023-01-17T03:22:26.157Z,1.73
2023-01-17T03:24:53.042Z,1.80
2023-01-17T03:27:20.041Z,1.89
2023-01-17T03:29:46.983Z,1.94
2023-01-17T03:32:14.014Z,1.91
2023-01-17T03:34:40.978Z,1.92
2023-01-17T03:37:07.976Z,1.80
2023-01-17T03:39:34.768Z,1.46
2023-01-17T03:42:01.994Z,1.56
2023-01-17T03:44:28.929Z,1.60
2023-01-17T03:46:55.952Z,1.60
2023-01-17T03:49:22.942Z,1.43
2023-01-17T03:51:49.902Z,1.55
2023-01-17T03:54:16.921Z,1.54
2023-01-17T03:56:44.002Z,1.42
2023-01-17T03:59:13.053Z,1.56
2023-01-17T04:01:40.340Z,1.51
2023-01-17T04:04:07.464Z,1.60
2023-01-17T04:06:34.346Z,1.66
2023-01-17T04:09:01.309Z,1.75
2023-01-17T04:11:28.694Z,1.70
2023-01-17T04:13:55.666Z,1.59
2023-01-17T04:16:28.494Z,1.40
2023-01-17T04:18:55.794Z,1.58
2023-01-17T04:21:22.975Z,1.62
2023-01-17T04:23:50.380Z,1.33
2023-01-17T04:26:17.359Z,1.21
2023-01-17T04:28:44.539Z,1.41
2023-01-17T04:31:16.331Z,1.49
2023-01-17T04:33:43.497Z,1.08
2023-01-17T04:36:10.345Z,1.23
2023-01-17T04:38:37.504Z,1.29
2023-01-17T04:41:04.811Z,1.36
2023-01-17T04:43:31.710Z,1.28
2023-01-17T04:45:59.301Z,1.39
2023-01-17T04:48:26.587Z,1.38
2023-01-17T04:51:03.718Z,1.11
2023-01-17T04:53:31.167Z,1.13
2023-01-17T04:55:58.359Z,1.10
2023-01-17T04:58:25.333Z,0.98
2023-01-17T05:00:52.182Z,1.22
2023-01-17T05:03:20.551Z,1.43
2023-01-17T05:05:47.651Z,1.51
2023-01-17T05:08:15.197Z,1.58
2023-01-17T05:10:42.106Z,1.61
2023-01-17T05:13:11.098Z,1.74
2023-01-17T05:15:38.410Z,1.57
2023-01-17T05:18:05.429Z,1.83
2023-01-17T05:20:32.378Z,2.13
2023-01-17T05:22:59.404Z,2.19
2023-01-17T05:25:28.846Z,2.04
2023-01-17T05:27:56.155Z,2.11
2023-01-17T05:30:23.447Z,2.13
2023-01-17T05:32:54.902Z,2.14
2023-01-17T05:35:24.993Z,2.29
2023-01-17T05:37:53.288Z,2.32
2023-01-17T05:40:22.684Z,2.39
2023-01-17T05:42:52.198Z,2.35
2023-01-17T05:45:21.063Z,2.20
2023-01-17T05:47:50.196Z,2.36
2023-01-17T05:50:29.241Z,2.03
2023-01-17T05:53:11.389Z,2.15
2023-01-17T05:55:38.546Z,2.27
2023-01-17T05:58:06.874Z,2.46
2023-01-17T06:00:33.906Z,2.63
2023-01-17T06:03:01.389Z,2.79
2023-01-17T06:05:29.820Z,2.87
2023-01-17T06:07:57.289Z,2.90
2023-01-17T06:10:25.338Z,3.00
2023-01-17T06:13:20.627Z,3.20
2023-01-17T06:15:48.376Z,3.49
2023-01-17T06:18:17.626Z,3.78
2023-01-17T06:20:45.317Z,4.10
2023-01-17T06:23:14.286Z,4.30
2023-01-17T06:25:43.862Z,4.49
2023-01-17T06:28:12.385Z,4.65
2023-01-17T06:30:39.644Z,4.64
2023-01-17T06:33:06.664Z,4.69
2023-01-17T06:35:33.998Z,4.76
2023-01-17T06:38:00.883Z,4.91
2023-01-17T06:40:29.065Z,5.16
2023-01-17T06:43:03.261Z,5.39
2023-01-17T06:45:31.757Z,5.55
2023-01-17T06:48:00.660Z,5.45
2023-01-17T06:50:27.892Z,4.99
2023-01-17T06:53:00.541Z,3.98
2023-01-17T06:55:29.886Z,3.85
2023-01-17T06:57:58.431Z,3.81
2023-01-17T07:00:26.531Z,4.02
2023-01-17T07:02:54.055Z,4.34
2023-01-17T07:05:21.414Z,4.13
2023-01-17T07:07:48.696Z,3.65
2023-01-17T07:10:16.137Z,3.44
2023-01-17T07:12:43.074Z,3.53
2023-01-17T07:15:10.646Z,3.50
2023-01-17T07:17:37.779Z,3.53
2023-01-17T07:20:05.154Z,3.42
2023-01-17T07:22:32.153Z,3.46
2023-01-17T07:24:58.974Z,3.70
2023-01-17T07:27:26.886Z,3.88
2023-01-17T07:29:54.353Z,4.09
2023-01-17T07:32:21.474Z,4.21
2023-01-17T07:34:49.191Z,4.54
2023-01-17T07:37:16.155Z,4.77
2023-01-17T07:39:43.160Z,5.11
2023-01-17T07:42:10.035Z,5.23
2023-01-17T07:44:36.853Z,5.40
2023-01-17T07:47:03.695Z,5.66
2023-01-17T07:49:30.585Z,5.41
2023-01-17T07:51:57.499Z,5.19
2023-01-17T07:54:24.445Z,5.03
2023-01-17T07:56:51.320Z,4.93
2023-01-17T07:59:18.341Z,4.93
2023-01-17T08:01:45.532Z,5.10
2023-01-17T08:04:12.737Z,5.16
2023-01-17T08:06:43.297Z,5.52
2023-01-17T08:09:10.235Z,5.98
2023-01-17T08:11:37.240Z,6.36
2023-01-17T08:14:04.123Z,6.10
2023-01-17T08:16:30.994Z,6.28
2023-01-17T08:18:57.920Z,6.78
2023-01-17T08:21:24.963Z,6.70
2023-01-17T08:23:56.202Z,6.76
2023-01-17T08:26:23.239Z,6.74
2023-01-17T08:28:58.534Z,6.95
2023-01-17T08:31:25.449Z,7.10
2023-01-17T08:33:52.403Z,7.35
2023-01-17T08:36:19.361Z,7.07
2023-01-17T08:38:46.263Z,7.14
2023-01-17T08:41:13.155Z,7.18
2023-01-17T08:43:40.040Z,7.10
2023-01-17T08:46:06.950Z,7.18
2023-01-17T08:48:33.835Z,7.37
2023-01-17T08:51:02.324Z,7.55
2023-01-17T08:53:29.150Z,7.41
2023-01-17T08:56:00.956Z,7.76
2023-01-17T08:58:30.689Z,7.83
2023-01-17T09:01:06.128Z,7.70
2023-01-17T09:03:34.772Z,7.73
2023-01-17T09:06:07.441Z,7.81
2023-01-17T09:08:35.312Z,7.88
2023-01-17T09:11:12.616Z,7.73
2023-01-17T09:13:40.412Z,7.66
2023-01-17T09:16:08.393Z,7.18
2023-01-17T09:18:36.446Z,7.25
2023-01-17T09:21:14.752Z,7.18
2023-01-17T09:23:42.296Z,7.38
2023-01-17T09:26:28.269Z,7.45
2023-01-17T09:28:56.049Z,7.42
2023-01-17T09:31:23.904Z,7.42
2023-01-17T09:33:52.047Z,7.58
2023-01-17T09:36:19.610Z,7.85
2023-01-17T09:38:47.130Z,8.00
2023-01-17T09:41:24.977Z,8.58
2023-01-17T09:44:07.734Z,8.65
2023-01-17T09:46:41.400Z,8.53
2023-01-17T09:49:30.522Z,8.89
2023-01-17T09:51:58.023Z,8.61
2023-01-17T09:54:32.890Z,8.79
2023-01-17T09:57:13.630Z,8.70
2023-01-17T10:00:04.793Z,8.71
2023-01-17T10:03:15.768Z,8.55
2023-01-17T10:06:07.339Z,8.78
2023-01-17T10:08:34.174Z,8.76
2023-01-17T10:11:13.071Z,8.97
2023-01-17T10:13:53.954Z,8.82
2023-01-17T10:16:42.081Z,8.79
2023-01-17T10:19:31.477Z,8.78
2023-01-17T10:22:40.212Z,9.37
2023-01-17T10:25:35.638Z,9.32
2023-01-17T10:28:12.376Z,9.22
2023-01-17T10:30:43.861Z,9.26
2023-01-17T10:33:41.669Z,9.28
2023-01-17T10:36:15.953Z,9.30
2023-01-17T10:38:47.625Z,9.52
2023-01-17T10:41:29.491Z,9.53
2023-01-17T10:44:20.023Z,9.62
2023-01-17T10:47:10.924Z,9.36
2023-01-17T10:49:46.018Z,9.18
2023-01-17T10:52:19.468Z,9.11
2023-01-17T10:54:55.223Z,9.22
2023-01-17T10:57:25.207Z,9.32
2023-01-17T10:59:58.069Z,9.57
2023-01-17T11:02:30.067Z,9.71
2023-01-17T11:05:01.255Z,9.80
2023-01-17T11:07:29.752Z,9.75
2023-01-17T11:09:59.314Z,9.46
2023-01-17T11:12:45.225Z,9.41
2023-01-17T11:15:12.074Z,9.56
2023-01-17T11:17:44.769Z,9.63
2023-01-17T11:20:28.247Z,9.54
2023-01-17T11:23:18.530Z,9.67
2023-01-17T11:25:57.791Z,9.91
2023-01-17T11:28:27.797Z,9.53
2023-01-17T11:31:02.548Z,9.33
2023-01-17T11:33:44.509Z,9.63
2023-01-17T11:36:29.950Z,9.77
2023-01-17T11:38:58.186Z,9.91
2023-01-17T11:41:26.489Z,9.98
2023-01-17T11:43:58.798Z,10.05
2023-01-17T11:46:27.133Z,10.32
2023-01-17T11:48:59.201Z,10.01
2023-01-17T11:51:33.386Z,10.00
2023-01-17T11:54:18.641Z,10.23
2023-01-17T11:56:45.594Z,10.27
2023-01-17T11:59:29.735Z,10.34
2023-01-17T12:02:02.259Z,10.01
2023-01-17T12:04:43.522Z,10.08
2023-01-17T12:07:29.265Z,10.14
2023-01-17T12:10:03.509Z,10.26
2023-01-17T12:12:44.105Z,10.21
2023-01-17T12:16:07.832Z,10.18
2023-01-17T12:18:40.752Z,10.31
2023-01-17T12:21:17.638Z,9.76
2023-01-17T12:24:02.439Z,9.53
2023-01-17T12:27:09.679Z,9.73
2023-01-17T12:29:54.717Z,9.73
2023-01-17T12:32:30.661Z,9.90
2023-01-17T12:35:15.501Z,9.54
2023-01-17T12:37:52.692Z,9.36
2023-01-17T12:40:37.530Z,9.27
2023-01-17T12:43:22.304Z,9.29
2023-01-17T12:45:52.468Z,9.20
2023-01-17T12:48:22.401Z,9.34
2023-01-17T12:51:24.755Z,9.29
2023-01-17T12:54:09.705Z,9.25
2023-01-17T12:56:54.185Z,9.23
2023-01-17T12:59:48.354Z,9.31
2023-01-17T13:02:52.516Z,9.30
2023-01-17T13:05:45.218Z,9.25
2023-01-17T13:08:20.915Z,9.15
2023-01-17T13:11:02.485Z,9.13
2023-01-17T13:13:31.039Z,9.12
2023-01-17T13:16:03.139Z,9.24
2023-01-17T13:18:30.305Z,9.22
2023-01-17T13:21:29.052Z,9.19
2023-01-17T13:23:59.024Z,9.12
2023-01-17T13:26:49.062Z,9.10
2023-01-17T13:29:33.898Z,9.05
2023-01-17T13:32:28.668Z,9.02
2023-01-17T13:35:21.262Z,9.03
2023-01-17T13:38:26.216Z,8.99
2023-01-17T13:41:11.263Z,9.02
2023-01-17T13:43:41.477Z,9.03
2023-01-17T13:46:08.408Z,8.97
2023-01-17T13:48:36.867Z,8.90
2023-01-17T13:51:05.951Z,8.86
2023-01-17T13:53:35.833Z,8.84
2023-01-17T13:56:26.270Z,8.75
2023-01-17T13:59:01.768Z,8.71
2023-01-17T14:01:34.619Z,8.72
2023-01-17T14:04:04.743Z,8.77
2023-01-17T14:06:40.493Z,8.73
2023-01-17T14:09:31.566Z,8.68
2023-01-17T14:12:24.364Z,8.65
2023-01-17T14:14:54.634Z,8.59
2023-01-17T14:17:21.517Z,8.57
2023-01-17T14:19:53.357Z,8.59
2023-01-17T14:22:20.167Z,8.59
2023-01-17T14:25:03.170Z,8.56
2023-01-17T14:27:34.139Z,8.52
2023-01-17T14:30:05.777Z,8.39
2023-01-17T14:32:35.625Z,8.34
2023-01-17T14:35:03.956Z,8.27
2023-01-17T14:37:46.397Z,8.19
2023-01-17T14:40:25.121Z,8.15
2023-01-17T14:43:23.251Z,8.10
2023-01-17T14:45:57.732Z,8.10
2023-01-17T14:48:24.871Z,8.03
2023-01-17T14:50:54.000Z,7.98
2023-01-17T14:53:24.347Z,7.98
2023-01-17T14:55:53.666Z,7.98
2023-01-17T14:58:25.980Z,7.92
2023-01-17T15:00:57.935Z,7.90
2023-01-17T15:03:25.037Z,7.85
2023-01-17T15:05:54.175Z,7.86
2023-01-17T15:08:25.208Z,7.86
2023-01-17T15:11:03.612Z,7.87
2023-01-17T15:13:44.208Z,7.84
2023-01-17T15:16:25.103Z,7.83
2023-01-17T15:18:53.730Z,7.83
2023-01-17T15:21:24.945Z,7.83
2023-01-17T15:23:57.398Z,7.84
2023-01-17T15:26:27.363Z,7.80
2023-01-17T15:29:07.011Z,7.77
2023-01-17T15:31:49.634Z,7.77
2023-01-17T15:34:31.989Z,7.75
2023-01-17T15:37:07.907Z,7.73
2023-01-17T15:39:37.563Z,7.76
2023-01-17T15:42:19.002Z,7.82
2023-01-17T15:44:49.201Z,7.88
2023-01-17T15:47:34.342Z,7.89
2023-01-17T15:50:22.166Z,7.88
2023-01-17T15:52:50.555Z,7.85
2023-01-17T15:55:26.388Z,7.82
2023-01-17T15:57:53.345Z,7.83
2023-01-17T16:00:27.831Z,7.84
2023-01-17T16:02:55.420Z,7.87
2023-01-17T16:05:22.885Z,7.87
2023-01-17T16:07:52.348Z,7.82
2023-01-17T16:10:20.774Z,7.84
2023-01-17T16:12:49.718Z,7.88
2023-01-17T16:15:18.395Z,7.86
2023-01-17T16:17:48.581Z,7.80
2023-01-17T16:20:21.342Z,7.68
2023-01-17T16:22:49.735Z,7.62
2023-01-17T16:25:19.531Z,7.61
2023-01-17T16:27:47.027Z,7.56
2023-01-17T16:30:17.615Z,7.53
2023-01-17T16:32:46.312Z,7.55
2023-01-17T16:35:19.298Z,7.67
2023-01-17T16:37:53.310Z,7.65
2023-01-17T16:40:22.583Z,7.46
2023-01-17T16:42:49.442Z,7.27
2023-01-17T16:45:17.821Z,7.22
2023-01-17T16:47:46.453Z,7.22
2023-01-17T16:50:15.515Z,7.21
2023-01-17T16:52:42.812Z,7.28
2023-01-17T16:55:14.721Z,7.35
2023-01-17T16:57:41.771Z,7.31
2023-01-17T17:00:10.480Z,7.22
2023-01-17T17:02:37.557Z,7.20
2023-01-17T17:05:04.998Z,7.20
2023-01-17T17:07:32.049Z,7.18
2023-01-17T17:10:00.404Z,7.20
2023-01-17T17:12:27.331Z,7.21
2023-01-17T17:14:54.204Z,7.24
2023-01-17T17:17:21.127Z,7.22
2023-01-17T17:19:48.054Z,7.21
2023-01-17T17:22:15.021Z,7.25
2023-01-17T17:24:42.035Z,7.28
2023-01-17T17:27:08.904Z,7.25
2023-01-17T17:29:35.837Z,7.25
2023-01-17T17:32:02.728Z,7.30
2023-01-17T17:34:29.680Z,7.31
2023-01-17T17:36:56.596Z,7.30
2023-01-17T17:39:23.439Z,7.36
2023-01-17T17:41:50.311Z,7.33
2023-01-17T17:44:17.156Z,7.29
2023-01-17T17:46:44.101Z,7.26
2023-01-17T17:49:11.033Z,7.25
2023-01-17T17:51:39.934Z,7.14
2023-01-17T17:54:12.086Z,7.12
2023-01-17T17:56:40.038Z,7.07
2023-01-17T17:59:08.961Z,7.11
2023-01-17T18:01:36.262Z,7.20
2023-01-17T18:04:04.373Z,7.29
2023-01-17T18:06:31.297Z,7.29
2023-01-17T18:08:58.238Z,7.24
2023-01-17T18:11:26.943Z,7.16
2023-01-17T18:13:55.701Z,7.08
2023-01-17T18:16:26.104Z,7.01
2023-01-17T18:18:55.664Z,6.94
2023-01-17T18:21:25.510Z,6.95
2023-01-17T18:23:57.777Z,7.03
2023-01-17T18:26:29.871Z,6.81
2023-01-17T18:28:58.174Z,6.85
2023-01-17T18:31:27.671Z,6.95
2023-01-17T18:33:56.303Z,6.87
2023-01-17T18:36:24.340Z,6.81
2023-01-17T18:38:52.334Z,6.85
2023-01-17T18:41:28.458Z,6.93
2023-01-17T18:43:55.606Z,6.80
2023-01-17T18:46:23.214Z,6.90
2023-01-17T18:48:50.265Z,6.98
2023-01-17T18:51:20.363Z,7.02
2023-01-17T18:53:47.335Z,6.98
2023-01-17T18:56:20.348Z,7.08
2023-01-17T18:58:49.500Z,7.00
2023-01-17T19:01:22.064Z,6.46
2023-01-17T19:03:51.948Z,6.11
2023-01-17T19:06:22.310Z,6.26
2023-01-17T19:08:52.229Z,6.49
2023-01-17T19:11:23.693Z,6.61
2023-01-17T19:13:50.744Z,6.68
2023-01-17T19:16:21.104Z,6.73
2023-01-17T19:18:48.081Z,6.74
2023-01-17T19:21:17.399Z,6.69
2023-01-17T19:23:44.873Z,6.73
2023-01-17T19:26:13.792Z,6.73
2023-01-17T19:28:42.672Z,6.78
2023-01-17T19:31:16.673Z,6.83
2023-01-17T19:33:45.640Z,6.85
2023-01-17T19:36:18.402Z,6.75
2023-01-17T19:39:03.101Z,6.74
2023-01-17T19:41:32.039Z,6.72
2023-01-17T19:44:01.594Z,6.65
2023-01-17T19:46:29.273Z,6.70
2023-01-17T19:48:57.803Z,6.68
2023-01-17T19:51:25.560Z,6.64
2023-01-17T19:53:52.404Z,6.48
2023-01-17T19:56:22.519Z,6.41
2023-01-17T19:58:49.560Z,6.38
2023-01-17T20:01:20.013Z,6.37
2023-01-17T20:03:47.452Z,6.17
2023-01-17T20:06:20.152Z,6.19
2023-01-17T20:08:47.001Z,6.08
2023-01-17T20:11:22.722Z,6.19
2023-01-17T20:13:52.717Z,6.14
2023-01-17T20:16:23.430Z,6.24
2023-01-17T20:18:50.661Z,6.21
2023-01-17T20:21:20.606Z,6.24
2023-01-17T20:23:48.505Z,6.25
2023-01-17T20:26:17.881Z,6.22
2023-01-17T20:28:47.005Z,6.20
2023-01-17T20:31:23.111Z,6.20
2023-01-17T20:33:50.994Z,6.31
2023-01-17T20:36:20.202Z,6.35
2023-01-17T20:38:47.250Z,6.43
2023-01-17T20:41:20.830Z,6.42
2023-01-17T20:43:52.065Z,6.43
2023-01-17T20:46:20.852Z,6.46
2023-01-17T20:48:50.661Z,6.63
2023-01-17T20:51:22.031Z,6.64
2023-01-17T20:53:54.362Z,6.65
2023-01-17T20:56:21.201Z,6.66
2023-01-17T20:58:49.579Z,6.67
2023-01-17T21:01:18.992Z,6.70
2023-01-17T21:03:47.251Z,6.57
2023-01-17T21:06:14.860Z,6.35
2023-01-17T21:08:45.158Z,6.41
2023-01-17T21:11:14.313Z,6.56
2023-01-17T21:13:41.629Z,6.64
2023-01-17T21:16:10.644Z,6.71
2023-01-17T21:18:37.750Z,6.75
2023-01-17T21:21:16.724Z,6.66
2023-01-17T21:23:44.602Z,6.53
2023-01-17T21:26:16.763Z,6.59
2023-01-17T21:28:45.983Z,6.48
2023-01-17T21:31:31.102Z,6.21
2023-01-17T21:33:59.461Z,6.07
2023-01-17T21:36:31.746Z,5.98
2023-01-17T21:39:00.222Z,6.12
2023-01-17T21:41:29.869Z,6.16
2023-01-17T21:43:58.766Z,6.28
2023-01-17T21:46:26.788Z,5.99
2023-01-17T21:48:53.786Z,5.75
2023-01-17T21:51:20.761Z,5.93
2023-01-17T21:53:47.689Z,6.04
2023-01-17T21:56:14.988Z,5.95
2023-01-17T21:58:41.813Z,5.83
2023-01-17T22:01:13.394Z,5.83
2023-01-17T22:03:40.476Z,5.86
2023-01-17T22:06:07.517Z,5.73
2023-01-17T22:08:35.108Z,5.65
2023-01-17T22:11:07.398Z,5.68
2023-01-17T22:13:35.160Z,5.66
2023-01-17T22:16:04.551Z,5.70
2023-01-17T22:18:33.240Z,5.76
2023-01-17T22:21:04.566Z,5.78
2023-01-17T22:23:31.495Z,5.76
2023-01-17T22:26:06.244Z,5.71
2023-01-17T22:28:33.820Z,5.76
2023-01-17T22:31:11.160Z,5.65
2023-01-17T22:33:39.667Z,5.74
2023-01-17T22:36:07.702Z,5.84
2023-01-17T22:38:35.379Z,5.86
2023-01-17T22:41:05.355Z,5.92
2023-01-17T22:43:32.239Z,5.98
2023-01-17T22:46:00.064Z,5.87
2023-01-17T22:48:27.009Z,5.71
2023-01-17T22:50:58.311Z,5.77
2023-01-17T22:53:25.194Z,5.72
2023-01-17T22:56:02.229Z,5.73
2023-01-17T22:58:29.393Z,5.72
2023-01-17T23:01:03.704Z,5.68
2023-01-17T23:03:30.616Z,5.51
2023-01-17T23:05:57.564Z,5.35
2023-01-17T23:08:24.738Z,5.26
2023-01-17T23:10:51.622Z,5.26
2023-01-17T23:13:18.504Z,5.33
2023-01-17T23:15:45.430Z,5.42
2023-01-17T23:18:12.324Z,5.45
2023-01-17T23:20:39.293Z,5.52
2023-01-17T23:23:06.262Z,5.62
2023-01-17T23:25:33.166Z,5.59
2023-01-17T23:27:59.995Z,5.56
2023-01-17T23:30:33.410Z,5.57
2023-01-17T23:33:08.810Z,5.60
2023-01-17T23:35:41.626Z,5.73
2023-01-17T23:38:13.808Z,5.84
2023-01-17T23:40:41.359Z,5.83
2023-01-17T23:43:11.759Z,5.87
2023-01-17T23:45:39.228Z,5.95
2023-01-17T23:48:07.717Z,5.94
2023-01-17T23:50:34.776Z,5.98
2023-01-17T23:53:02.664Z,6.02
2023-01-17T23:55:29.500Z,6.04
2023-01-17T23:57:56.443Z,6.06
